sensor_id;sensor_type;location;lat;lon;timestamp;P1;durP1;ratioP1;P2;durP2;ratioP2
75156;SDS011;63736;50.076;8.198;2023-04-25T00:00:13;238.73;;;78.70;;
75156;SDS011;63736;50.076;8.198;2023-04-25T00:02:39;232.40;;;78.10;;
75156;SDS011;63736;50.076;8.198;2023-04-25T00:05:04;230.60;;;77.23;;
75156;SDS011;63736;50.076;8.198;2023-04-25T00:07:30;228.05;;;75.93;;
75156;SDS011;63736;50.076;8.198;2023-04-25T00:09:57;225.93;;;75.23;;
75156;SDS011;63736;50.076;8.198;2023-04-25T00:12:23;223.45;;;73.78;;
75156;SDS011;63736;50.076;8.198;2023-04-25T00:14:48;221.13;;;73.43;;
75156;SDS011;63736;50.076;8.198;2023-04-25T00:17:15;221.07;;;73.80;;
75156;SDS011;63736;50.076;8.198;2023-04-25T00:19:41;217.73;;;72.70;;
75156;SDS011;63736;50.076;8.198;2023-04-25T00:22:07;216.23;;;72.93;;
75156;SDS011;63736;50.076;8.198;2023-04-25T00:24:32;215.02;;;73.40;;
75156;SDS011;63736;50.076;8.198;2023-04-25T00:26:58;214.57;;;72.03;;
75156;SDS011;63736;50.076;8.198;2023-04-25T00:29:23;213.00;;;71.77;;
75156;SDS011;63736;50.076;8.198;2023-04-25T00:31:48;211.43;;;71.73;;
75156;SDS011;63736;50.076;8.198;2023-04-25T00:34:14;210.73;;;71.97;;
75156;SDS011;63736;50.076;8.198;2023-04-25T00:36:39;210.18;;;71.03;;
75156;SDS011;63736;50.076;8.198;2023-04-25T00:39:04;211.07;;;71.10;;
75156;SDS011;63736;50.076;8.198;2023-04-25T00:41:30;212.17;;;71.60;;
75156;SDS011;63736;50.076;8.198;2023-04-25T00:43:55;206.40;;;70.00;;
75156;SDS011;63736;50.076;8.198;2023-04-25T00:46:21;206.73;;;70.72;;
75156;SDS011;63736;50.076;8.198;2023-04-25T00:48:47;204.00;;;70.20;;
75156;SDS011;63736;50.076;8.198;2023-04-25T00:51:20;205.40;;;70.90;;
75156;SDS011;63736;50.076;8.198;2023-04-25T00:53:46;207.13;;;70.50;;
75156;SDS011;63736;50.076;8.198;2023-04-25T00:56:13;203.02;;;70.05;;
75156;SDS011;63736;50.076;8.198;2023-04-25T00:58:39;204.90;;;70.33;;
75156;SDS011;63736;50.076;8.198;2023-04-25T01:01:05;203.30;;;69.35;;
75156;SDS011;63736;50.076;8.198;2023-04-25T01:03:32;200.57;;;69.78;;
75156;SDS011;63736;50.076;8.198;2023-04-25T01:06:00;198.32;;;68.93;;
75156;SDS011;63736;50.076;8.198;2023-04-25T01:08:26;200.82;;;69.72;;
75156;SDS011;63736;50.076;8.198;2023-04-25T01:10:51;202.07;;;70.10;;
75156;SDS011;63736;50.076;8.198;2023-04-25T01:13:17;205.53;;;70.93;;
75156;SDS011;63736;50.076;8.198;2023-04-25T01:15:42;200.40;;;69.50;;
75156;SDS011;63736;50.076;8.198;2023-04-25T01:18:08;198.38;;;68.60;;
75156;SDS011;63736;50.076;8.198;2023-04-25T01:20:34;196.85;;;68.55;;
75156;SDS011;63736;50.076;8.198;2023-04-25T01:23:03;202.48;;;69.88;;
75156;SDS011;63736;50.076;8.198;2023-04-25T01:25:30;203.50;;;70.33;;
75156;SDS011;63736;50.076;8.198;2023-04-25T01:27:56;204.60;;;70.68;;
75156;SDS011;63736;50.076;8.198;2023-04-25T01:30:21;204.15;;;70.63;;
75156;SDS011;63736;50.076;8.198;2023-04-25T01:32:47;206.30;;;71.03;;
75156;SDS011;63736;50.076;8.198;2023-04-25T01:35:13;204.23;;;70.63;;
75156;SDS011;63736;50.076;8.198;2023-04-25T01:37:42;201.73;;;68.68;;
75156;SDS011;63736;50.076;8.198;2023-04-25T01:40:09;199.63;;;69.15;;
75156;SDS011;63736;50.076;8.198;2023-04-25T01:42:36;199.75;;;68.82;;
75156;SDS011;63736;50.076;8.198;2023-04-25T01:45:02;201.23;;;69.73;;
75156;SDS011;63736;50.076;8.198;2023-04-25T01:47:28;198.57;;;69.32;;
75156;SDS011;63736;50.076;8.198;2023-04-25T01:49:53;199.00;;;69.30;;
75156;SDS011;63736;50.076;8.198;2023-04-25T01:52:19;199.68;;;68.82;;
75156;SDS011;63736;50.076;8.198;2023-04-25T01:54:44;196.97;;;68.37;;
75156;SDS011;63736;50.076;8.198;2023-04-25T01:57:10;199.27;;;69.97;;
75156;SDS011;63736;50.076;8.198;2023-04-25T01:59:36;196.95;;;69.90;;
75156;SDS011;63736;50.076;8.198;2023-04-25T02:02:01;198.57;;;69.47;;
75156;SDS011;63736;50.076;8.198;2023-04-25T02:04:28;198.23;;;68.70;;
75156;SDS011;63736;50.076;8.198;2023-04-25T02:06:54;198.85;;;68.93;;
75156;SDS011;63736;50.076;8.198;2023-04-25T02:09:19;200.97;;;69.80;;
75156;SDS011;63736;50.076;8.198;2023-04-25T02:11:45;203.20;;;70.33;;
75156;SDS011;63736;50.076;8.198;2023-04-25T02:14:10;200.60;;;69.57;;
75156;SDS011;63736;50.076;8.198;2023-04-25T02:16:35;199.13;;;69.30;;
75156;SDS011;63736;50.076;8.198;2023-04-25T02:19:01;199.80;;;69.67;;
75156;SDS011;63736;50.076;8.198;2023-04-25T02:21:26;195.18;;;68.18;;
75156;SDS011;63736;50.076;8.198;2023-04-25T02:23:52;198.90;;;69.20;;
75156;SDS011;63736;50.076;8.198;2023-04-25T02:26:17;200.03;;;68.80;;
75156;SDS011;63736;50.076;8.198;2023-04-25T02:28:42;196.33;;;68.00;;
75156;SDS011;63736;50.076;8.198;2023-04-25T02:31:08;197.13;;;69.70;;
75156;SDS011;63736;50.076;8.198;2023-04-25T02:33:33;197.50;;;69.10;;
75156;SDS011;63736;50.076;8.198;2023-04-25T02:35:59;200.43;;;70.03;;
75156;SDS011;63736;50.076;8.198;2023-04-25T02:38:24;200.83;;;71.43;;
75156;SDS011;63736;50.076;8.198;2023-04-25T02:40:50;200.30;;;70.20;;
75156;SDS011;63736;50.076;8.198;2023-04-25T02:43:15;202.10;;;70.23;;
75156;SDS011;63736;50.076;8.198;2023-04-25T02:45:41;207.87;;;71.93;;
75156;SDS011;63736;50.076;8.198;2023-04-25T02:48:06;213.67;;;72.97;;
75156;SDS011;63736;50.076;8.198;2023-04-25T02:50:31;215.77;;;73.30;;
75156;SDS011;63736;50.076;8.198;2023-04-25T02:52:56;220.17;;;75.17;;
75156;SDS011;63736;50.076;8.198;2023-04-25T02:55:22;221.00;;;75.40;;
75156;SDS011;63736;50.076;8.198;2023-04-25T02:57:47;225.93;;;75.40;;
75156;SDS011;63736;50.076;8.198;2023-04-25T03:00:12;225.17;;;75.60;;
75156;SDS011;63736;50.076;8.198;2023-04-25T03:02:39;224.32;;;75.57;;
75156;SDS011;63736;50.076;8.198;2023-04-25T03:05:04;224.13;;;75.43;;
75156;SDS011;63736;50.076;8.198;2023-04-25T03:07:30;218.68;;;73.07;;
75156;SDS011;63736;50.076;8.198;2023-04-25T03:09:56;217.70;;;73.23;;
75156;SDS011;63736;50.076;8.198;2023-04-25T03:12:21;215.43;;;72.17;;
75156;SDS011;63736;50.076;8.198;2023-04-25T03:14:47;213.52;;;71.97;;
75156;SDS011;63736;50.076;8.198;2023-04-25T03:17:12;211.00;;;71.60;;
75156;SDS011;63736;50.076;8.198;2023-04-25T03:19:37;216.87;;;72.90;;
75156;SDS011;63736;50.076;8.198;2023-04-25T03:22:03;217.10;;;72.47;;
75156;SDS011;63736;50.076;8.198;2023-04-25T03:24:28;222.33;;;75.37;;
75156;SDS011;63736;50.076;8.198;2023-04-25T03:26:53;221.27;;;75.43;;
75156;SDS011;63736;50.076;8.198;2023-04-25T03:29:18;249.27;;;82.67;;
75156;SDS011;63736;50.076;8.198;2023-04-25T03:31:44;282.45;;;90.60;;
75156;SDS011;63736;50.076;8.198;2023-04-25T03:34:10;298.97;;;94.60;;
75156;SDS011;63736;50.076;8.198;2023-04-25T03:36:35;284.13;;;90.37;;
75156;SDS011;63736;50.076;8.198;2023-04-25T03:39:01;303.13;;;94.93;;
75156;SDS011;63736;50.076;8.198;2023-04-25T03:41:26;314.50;;;97.07;;
75156;SDS011;63736;50.076;8.198;2023-04-25T03:43:51;288.87;;;93.10;;
75156;SDS011;63736;50.076;8.198;2023-04-25T03:46:16;258.40;;;84.00;;
75156;SDS011;63736;50.076;8.198;2023-04-25T03:48:42;252.40;;;83.53;;
75156;SDS011;63736;50.076;8.198;2023-04-25T03:51:07;256.50;;;84.83;;
75156;SDS011;63736;50.076;8.198;2023-04-25T03:53:32;254.83;;;83.20;;
75156;SDS011;63736;50.076;8.198;2023-04-25T03:55:58;266.03;;;85.70;;
75156;SDS011;63736;50.076;8.198;2023-04-25T03:58:23;271.10;;;86.85;;
75156;SDS011;63736;50.076;8.198;2023-04-25T04:00:49;276.73;;;88.57;;
75156;SDS011;63736;50.076;8.198;2023-04-25T04:03:14;286.27;;;89.72;;
75156;SDS011;63736;50.076;8.198;2023-04-25T04:05:40;288.67;;;90.20;;
75156;SDS011;63736;50.076;8.198;2023-04-25T04:08:05;278.13;;;88.40;;
75156;SDS011;63736;50.076;8.198;2023-04-25T04:10:31;273.20;;;87.15;;
75156;SDS011;63736;50.076;8.198;2023-04-25T04:12:56;267.43;;;85.53;;
75156;SDS011;63736;50.076;8.198;2023-04-25T04:15:21;269.90;;;86.23;;
75156;SDS011;63736;50.076;8.198;2023-04-25T04:17:47;265.87;;;85.00;;
75156;SDS011;63736;50.076;8.198;2023-04-25T04:20:13;268.95;;;86.35;;
75156;SDS011;63736;50.076;8.198;2023-04-25T04:22:39;266.30;;;85.57;;
75156;SDS011;63736;50.076;8.198;2023-04-25T04:25:05;266.10;;;85.00;;
75156;SDS011;63736;50.076;8.198;2023-04-25T04:27:31;260.60;;;84.13;;
75156;SDS011;63736;50.076;8.198;2023-04-25T04:29:57;262.15;;;83.32;;
75156;SDS011;63736;50.076;8.198;2023-04-25T04:32:22;263.13;;;84.53;;
75156;SDS011;63736;50.076;8.198;2023-04-25T04:34:48;260.00;;;83.57;;
75156;SDS011;63736;50.076;8.198;2023-04-25T04:37:14;265.00;;;85.45;;
75156;SDS011;63736;50.076;8.198;2023-04-25T04:39:39;267.63;;;85.13;;
75156;SDS011;63736;50.076;8.198;2023-04-25T04:42:05;264.45;;;84.35;;
75156;SDS011;63736;50.076;8.198;2023-04-25T04:44:31;268.30;;;85.33;;
75156;SDS011;63736;50.076;8.198;2023-04-25T04:47:00;264.73;;;84.97;;
75156;SDS011;63736;50.076;8.198;2023-04-25T04:49:25;265.70;;;84.77;;
75156;SDS011;63736;50.076;8.198;2023-04-25T04:51:51;267.93;;;85.20;;
75156;SDS011;63736;50.076;8.198;2023-04-25T04:54:17;267.15;;;86.03;;
75156;SDS011;63736;50.076;8.198;2023-04-25T04:56:42;267.93;;;86.20;;
75156;SDS011;63736;50.076;8.198;2023-04-25T04:59:08;273.35;;;87.93;;
75156;SDS011;63736;50.076;8.198;2023-04-25T05:01:33;269.33;;;86.33;;
75156;SDS011;63736;50.076;8.198;2023-04-25T05:04:02;269.85;;;85.85;;
75156;SDS011;63736;50.076;8.198;2023-04-25T05:06:28;270.45;;;85.75;;
75156;SDS011;63736;50.076;8.198;2023-04-25T05:08:56;269.55;;;86.22;;
75156;SDS011;63736;50.076;8.198;2023-04-25T05:11:22;275.23;;;89.63;;
75156;SDS011;63736;50.076;8.198;2023-04-25T05:13:49;274.23;;;86.95;;
75156;SDS011;63736;50.076;8.198;2023-04-25T05:16:15;273.65;;;86.65;;
75156;SDS011;63736;50.076;8.198;2023-04-25T05:18:41;275.13;;;86.93;;
75156;SDS011;63736;50.076;8.198;2023-04-25T05:21:07;279.08;;;86.85;;
75156;SDS011;63736;50.076;8.198;2023-04-25T05:23:32;281.77;;;88.30;;
75156;SDS011;63736;50.076;8.198;2023-04-25T05:25:58;280.97;;;87.23;;
75156;SDS011;63736;50.076;8.198;2023-04-25T05:28:23;281.97;;;88.47;;
75156;SDS011;63736;50.076;8.198;2023-04-25T05:30:48;281.23;;;87.32;;
75156;SDS011;63736;50.076;8.198;2023-04-25T05:33:14;280.70;;;87.03;;
75156;SDS011;63736;50.076;8.198;2023-04-25T05:35:39;290.63;;;90.23;;
75156;SDS011;63736;50.076;8.198;2023-04-25T05:38:05;281.97;;;87.87;;
75156;SDS011;63736;50.076;8.198;2023-04-25T05:40:30;284.05;;;88.65;;
75156;SDS011;63736;50.076;8.198;2023-04-25T05:42:55;296.50;;;91.03;;
75156;SDS011;63736;50.076;8.198;2023-04-25T05:45:20;307.77;;;94.17;;
75156;SDS011;63736;50.076;8.198;2023-04-25T05:47:46;335.10;;;101.10;;
75156;SDS011;63736;50.076;8.198;2023-04-25T05:50:11;342.60;;;101.37;;
75156;SDS011;63736;50.076;8.198;2023-04-25T05:52:36;333.33;;;99.93;;
75156;SDS011;63736;50.076;8.198;2023-04-25T05:55:01;325.33;;;98.10;;
75156;SDS011;63736;50.076;8.198;2023-04-25T05:57:27;330.70;;;99.33;;
75156;SDS011;63736;50.076;8.198;2023-04-25T05:59:52;346.00;;;102.47;;
75156;SDS011;63736;50.076;8.198;2023-04-25T06:02:19;343.20;;;101.72;;
75156;SDS011;63736;50.076;8.198;2023-04-25T06:04:46;347.40;;;102.80;;
75156;SDS011;63736;50.076;8.198;2023-04-25T06:07:11;294.38;;;90.10;;
75156;SDS011;63736;50.076;8.198;2023-04-25T06:09:37;272.17;;;84.83;;
75156;SDS011;63736;50.076;8.198;2023-04-25T06:12:04;280.20;;;86.53;;
75156;SDS011;63736;50.076;8.198;2023-04-25T06:14:30;275.92;;;85.28;;
75156;SDS011;63736;50.076;8.198;2023-04-25T06:16:55;276.43;;;85.77;;
75156;SDS011;63736;50.076;8.198;2023-04-25T06:19:20;271.70;;;84.37;;
75156;SDS011;63736;50.076;8.198;2023-04-25T06:21:46;262.50;;;82.87;;
75156;SDS011;63736;50.076;8.198;2023-04-25T06:24:11;261.53;;;81.73;;
75156;SDS011;63736;50.076;8.198;2023-04-25T06:26:36;256.67;;;80.87;;
75156;SDS011;63736;50.076;8.198;2023-04-25T06:29:01;251.17;;;79.83;;
75156;SDS011;63736;50.076;8.198;2023-04-25T06:31:27;251.87;;;79.70;;
75156;SDS011;63736;50.076;8.198;2023-04-25T06:33:53;248.27;;;79.82;;
75156;SDS011;63736;50.076;8.198;2023-04-25T06:36:19;250.88;;;79.72;;
75156;SDS011;63736;50.076;8.198;2023-04-25T06:38:49;249.27;;;79.90;;
75156;SDS011;63736;50.076;8.198;2023-04-25T06:41:15;261.77;;;82.45;;
75156;SDS011;63736;50.076;8.198;2023-04-25T06:43:40;351.63;;;103.13;;
75156;SDS011;63736;50.076;8.198;2023-04-25T06:46:06;371.67;;;106.97;;
75156;SDS011;63736;50.076;8.198;2023-04-25T06:48:31;396.10;;;111.27;;
75156;SDS011;63736;50.076;8.198;2023-04-25T06:50:56;395.03;;;109.93;;
75156;SDS011;63736;50.076;8.198;2023-04-25T06:53:22;472.80;;;124.60;;
75156;SDS011;63736;50.076;8.198;2023-04-25T06:55:47;411.27;;;112.90;;
75156;SDS011;63736;50.076;8.198;2023-04-25T06:58:12;413.57;;;112.83;;
75156;SDS011;63736;50.076;8.198;2023-04-25T07:00:37;403.47;;;110.83;;
75156;SDS011;63736;50.076;8.198;2023-04-25T07:03:03;374.80;;;104.80;;
75156;SDS011;63736;50.076;8.198;2023-04-25T07:05:28;330.00;;;96.43;;
75156;SDS011;63736;50.076;8.198;2023-04-25T07:07:53;297.60;;;90.67;;
75156;SDS011;63736;50.076;8.198;2023-04-25T07:10:18;302.33;;;91.17;;
75156;SDS011;63736;50.076;8.198;2023-04-25T07:12:44;306.52;;;93.13;;
75156;SDS011;63736;50.076;8.198;2023-04-25T07:15:09;300.10;;;90.30;;
75156;SDS011;63736;50.076;8.198;2023-04-25T07:17:36;299.55;;;90.85;;
75156;SDS011;63736;50.076;8.198;2023-04-25T07:20:02;297.57;;;90.50;;
75156;SDS011;63736;50.076;8.198;2023-04-25T07:22:28;339.05;;;98.50;;
75156;SDS011;63736;50.076;8.198;2023-04-25T07:24:53;326.73;;;95.37;;
75156;SDS011;63736;50.076;8.198;2023-04-25T07:27:20;388.60;;;106.80;;
75156;SDS011;63736;50.076;8.198;2023-04-25T07:29:45;427.97;;;115.00;;
75156;SDS011;63736;50.076;8.198;2023-04-25T07:32:11;432.40;;;114.47;;
75156;SDS011;63736;50.076;8.198;2023-04-25T07:34:38;373.75;;;105.00;;
75156;SDS011;63736;50.076;8.198;2023-04-25T07:37:03;485.90;;;126.90;;
75156;SDS011;63736;50.076;8.198;2023-04-25T07:39:30;458.20;;;119.80;;
75156;SDS011;63736;50.076;8.198;2023-04-25T07:41:55;450.33;;;119.97;;
75156;SDS011;63736;50.076;8.198;2023-04-25T07:44:21;450.67;;;119.07;;
75156;SDS011;63736;50.076;8.198;2023-04-25T07:46:46;442.30;;;117.70;;
75156;SDS011;63736;50.076;8.198;2023-04-25T07:49:11;437.57;;;117.20;;
75156;SDS011;63736;50.076;8.198;2023-04-25T07:51:37;441.73;;;117.60;;
75156;SDS011;63736;50.076;8.198;2023-04-25T07:54:02;430.53;;;116.33;;
75156;SDS011;63736;50.076;8.198;2023-04-25T07:56:27;439.87;;;118.40;;
75156;SDS011;63736;50.076;8.198;2023-04-25T07:58:53;433.50;;;117.03;;
75156;SDS011;63736;50.076;8.198;2023-04-25T08:01:18;436.13;;;117.43;;
75156;SDS011;63736;50.076;8.198;2023-04-25T08:03:45;434.98;;;116.90;;
75156;SDS011;63736;50.076;8.198;2023-04-25T08:06:11;432.73;;;116.90;;
75156;SDS011;63736;50.076;8.198;2023-04-25T08:08:36;423.47;;;114.97;;
75156;SDS011;63736;50.076;8.198;2023-04-25T08:11:01;421.57;;;115.27;;
75156;SDS011;63736;50.076;8.198;2023-04-25T08:13:27;428.33;;;116.10;;
75156;SDS011;63736;50.076;8.198;2023-04-25T08:15:53;443.20;;;118.20;;
75156;SDS011;63736;50.076;8.198;2023-04-25T08:18:18;476.87;;;125.13;;
75156;SDS011;63736;50.076;8.198;2023-04-25T08:20:43;494.37;;;130.07;;
75156;SDS011;63736;50.076;8.198;2023-04-25T08:23:08;604.47;;;158.33;;
75156;SDS011;63736;50.076;8.198;2023-04-25T08:25:35;574.83;;;148.32;;
75156;SDS011;63736;50.076;8.198;2023-04-25T08:28:01;567.67;;;146.97;;
75156;SDS011;63736;50.076;8.198;2023-04-25T08:30:27;618.40;;;159.18;;
75156;SDS011;63736;50.076;8.198;2023-04-25T08:32:53;679.00;;;179.20;;
75156;SDS011;63736;50.076;8.198;2023-04-25T08:35:18;670.53;;;178.32;;
75156;SDS011;63736;50.076;8.198;2023-04-25T08:37:43;605.60;;;156.47;;
75156;SDS011;63736;50.076;8.198;2023-04-25T08:40:11;632.23;;;166.57;;
75156;SDS011;63736;50.076;8.198;2023-04-25T08:42:39;641.88;;;171.98;;
75156;SDS011;63736;50.076;8.198;2023-04-25T08:45:06;798.13;;;245.30;;
75156;SDS011;63736;50.076;8.198;2023-04-25T08:47:33;774.70;;;236.02;;
75156;SDS011;63736;50.076;8.198;2023-04-25T08:49:59;912.30;;;292.55;;
75156;SDS011;63736;50.076;8.198;2023-04-25T08:52:27;924.22;;;299.17;;
75156;SDS011;63736;50.076;8.198;2023-04-25T08:54:55;1014.35;;;330.00;;
75156;SDS011;63736;50.076;8.198;2023-04-25T08:57:22;1031.57;;;337.47;;
75156;SDS011;63736;50.076;8.198;2023-04-25T08:59:48;1075.18;;;353.85;;
75156;SDS011;63736;50.076;8.198;2023-04-25T09:02:14;1084.30;;;362.80;;
75156;SDS011;63736;50.076;8.198;2023-04-25T09:04:42;1059.50;;;353.33;;
75156;SDS011;63736;50.076;8.198;2023-04-25T09:07:08;1050.50;;;350.53;;
75156;SDS011;63736;50.076;8.198;2023-04-25T09:09:34;1072.68;;;357.98;;
75156;SDS011;63736;50.076;8.198;2023-04-25T09:12:00;1059.57;;;353.88;;
75156;SDS011;63736;50.076;8.198;2023-04-25T09:14:26;1050.38;;;349.85;;
75156;SDS011;63736;50.076;8.198;2023-04-25T09:19:24;1042.43;;;347.10;;
75156;SDS011;63736;50.076;8.198;2023-04-25T09:21:55;1046.93;;;347.40;;
75156;SDS011;63736;50.076;8.198;2023-04-25T09:27:12;1138.18;;;399.42;;
75156;SDS011;63736;50.076;8.198;2023-04-25T09:29:42;1085.07;;;356.57;;
75156;SDS011;63736;50.076;8.198;2023-04-25T09:32:11;1089.63;;;359.85;;
75156;SDS011;63736;50.076;8.198;2023-04-25T09:34:42;1066.85;;;351.73;;
75156;SDS011;63736;50.076;8.198;2023-04-25T09:37:09;1056.03;;;346.27;;
75156;SDS011;63736;50.076;8.198;2023-04-25T09:39:36;1070.72;;;349.73;;
75156;SDS011;63736;50.076;8.198;2023-04-25T09:42:02;1100.38;;;358.08;;
75156;SDS011;63736;50.076;8.198;2023-04-25T09:44:28;1082.63;;;350.05;;
75156;SDS011;63736;50.076;8.198;2023-04-25T09:46:53;1098.27;;;355.03;;
75156;SDS011;63736;50.076;8.198;2023-04-25T09:49:19;1105.13;;;359.87;;
75156;SDS011;63736;50.076;8.198;2023-04-25T09:51:58;1075.15;;;350.95;;
75156;SDS011;63736;50.076;8.198;2023-04-25T09:54:25;1048.82;;;344.55;;
75156;SDS011;63736;50.076;8.198;2023-04-25T09:56:51;1034.50;;;339.58;;
75156;SDS011;63736;50.076;8.198;2023-04-25T09:59:21;1021.73;;;335.17;;
75156;SDS011;63736;50.076;8.198;2023-04-25T10:01:50;1015.55;;;331.83;;
75156;SDS011;63736;50.076;8.198;2023-04-25T10:04:19;1017.08;;;331.17;;
75156;SDS011;63736;50.076;8.198;2023-04-25T10:06:48;1017.58;;;331.30;;
75156;SDS011;63736;50.076;8.198;2023-04-25T10:09:14;1016.03;;;330.30;;
75156;SDS011;63736;50.076;8.198;2023-04-25T10:11:40;1022.43;;;335.33;;
75156;SDS011;63736;50.076;8.198;2023-04-25T10:14:06;1043.93;;;346.50;;
75156;SDS011;63736;50.076;8.198;2023-04-25T10:16:31;1085.40;;;371.50;;
75156;SDS011;63736;50.076;8.198;2023-04-25T10:18:57;1116.70;;;396.13;;
75156;SDS011;63736;50.076;8.198;2023-04-25T10:21:22;1123.72;;;402.45;;
75156;SDS011;63736;50.076;8.198;2023-04-25T10:23:49;1121.47;;;406.23;;
75156;SDS011;63736;50.076;8.198;2023-04-25T10:26:14;1115.78;;;402.63;;
75156;SDS011;63736;50.076;8.198;2023-04-25T10:29:00;1107.00;;;394.83;;
75156;SDS011;63736;50.076;8.198;2023-04-25T10:31:28;1122.93;;;402.03;;
75156;SDS011;63736;50.076;8.198;2023-04-25T10:33:55;1110.40;;;395.13;;
75156;SDS011;63736;50.076;8.198;2023-04-25T10:36:21;1122.43;;;400.13;;
75156;SDS011;63736;50.076;8.198;2023-04-25T10:38:49;1103.35;;;391.17;;
75156;SDS011;63736;50.076;8.198;2023-04-25T10:41:18;1077.50;;;388.40;;
75156;SDS011;63736;50.076;8.198;2023-04-25T10:43:45;1055.90;;;382.83;;
75156;SDS011;63736;50.076;8.198;2023-04-25T10:46:15;1047.97;;;382.95;;
75156;SDS011;63736;50.076;8.198;2023-04-25T10:48:50;1024.00;;;373.65;;
75156;SDS011;63736;50.076;8.198;2023-04-25T10:51:21;1016.63;;;373.65;;
75156;SDS011;63736;50.076;8.198;2023-04-25T10:59:02;1008.58;;;373.55;;
75156;SDS011;63736;50.076;8.198;2023-04-25T11:01:52;998.53;;;371.77;;
75156;SDS011;63736;50.076;8.198;2023-04-25T11:04:28;992.95;;;367.77;;
75156;SDS011;63736;50.076;8.198;2023-04-25T11:09:39;989.90;;;361.20;;
75156;SDS011;63736;50.076;8.198;2023-04-25T11:12:06;985.33;;;357.02;;
75156;SDS011;63736;50.076;8.198;2023-04-25T11:14:32;989.97;;;357.40;;
75156;SDS011;63736;50.076;8.198;2023-04-25T11:16:58;986.90;;;353.97;;
75156;SDS011;63736;50.076;8.198;2023-04-25T11:19:26;985.15;;;352.75;;
75156;SDS011;63736;50.076;8.198;2023-04-25T11:21:58;990.72;;;354.27;;
75156;SDS011;63736;50.076;8.198;2023-04-25T11:24:28;985.73;;;351.83;;
75156;SDS011;63736;50.076;8.198;2023-04-25T11:26:56;987.72;;;353.48;;
75156;SDS011;63736;50.076;8.198;2023-04-25T11:29:27;982.75;;;351.95;;
75156;SDS011;63736;50.076;8.198;2023-04-25T11:31:56;981.90;;;350.80;;
75156;SDS011;63736;50.076;8.198;2023-04-25T11:34:26;983.97;;;350.58;;
75156;SDS011;63736;50.076;8.198;2023-04-25T11:36:52;976.33;;;348.43;;
75156;SDS011;63736;50.076;8.198;2023-04-25T11:39:18;971.47;;;346.55;;
75156;SDS011;63736;50.076;8.198;2023-04-25T11:41:44;976.75;;;349.27;;
75156;SDS011;63736;50.076;8.198;2023-04-25T11:44:09;974.57;;;349.13;;
75156;SDS011;63736;50.076;8.198;2023-04-25T11:46:35;970.17;;;347.87;;
75156;SDS011;63736;50.076;8.198;2023-04-25T11:49:00;970.50;;;347.73;;
75156;SDS011;63736;50.076;8.198;2023-04-25T11:51:26;973.27;;;349.20;;
75156;SDS011;63736;50.076;8.198;2023-04-25T11:53:52;977.10;;;349.92;;
75156;SDS011;63736;50.076;8.198;2023-04-25T11:56:17;971.00;;;348.77;;
75156;SDS011;63736;50.076;8.198;2023-04-25T11:58:55;970.90;;;348.33;;
75156;SDS011;63736;50.076;8.198;2023-04-25T12:01:28;975.90;;;349.25;;
75156;SDS011;63736;50.076;8.198;2023-04-25T12:03:57;998.30;;;357.80;;
75156;SDS011;63736;50.076;8.198;2023-04-25T12:06:29;1049.73;;;372.57;;
75156;SDS011;63736;50.076;8.198;2023-04-25T12:09:04;1071.63;;;376.88;;
75156;SDS011;63736;50.076;8.198;2023-04-25T12:11:32;1132.95;;;410.73;;
75156;SDS011;63736;50.076;8.198;2023-04-25T12:14:01;1246.30;;;484.53;;
75156;SDS011;63736;50.076;8.198;2023-04-25T12:16:27;1251.13;;;486.90;;
75156;SDS011;63736;50.076;8.198;2023-04-25T12:18:53;1245.77;;;471.37;;
75156;SDS011;63736;50.076;8.198;2023-04-25T12:21:20;1244.28;;;457.17;;
75156;SDS011;63736;50.076;8.198;2023-04-25T12:23:45;1244.20;;;456.23;;
75156;SDS011;63736;50.076;8.198;2023-04-25T12:26:11;1236.57;;;458.38;;
75156;SDS011;63736;50.076;8.198;2023-04-25T12:28:36;1245.00;;;471.43;;
75156;SDS011;63736;50.076;8.198;2023-04-25T12:31:02;1250.03;;;495.83;;
75156;SDS011;63736;50.076;8.198;2023-04-25T12:33:32;1247.25;;;497.58;;
75156;SDS011;63736;50.076;8.198;2023-04-25T12:35:59;1222.82;;;480.95;;
75156;SDS011;63736;50.076;8.198;2023-04-25T12:38:29;1210.17;;;469.73;;
75156;SDS011;63736;50.076;8.198;2023-04-25T12:40:55;1207.93;;;460.08;;
75156;SDS011;63736;50.076;8.198;2023-04-25T12:43:22;1197.38;;;454.70;;
75156;SDS011;63736;50.076;8.198;2023-04-25T12:45:51;1199.03;;;453.53;;
75156;SDS011;63736;50.076;8.198;2023-04-25T12:48:17;1242.32;;;468.17;;
75156;SDS011;63736;50.076;8.198;2023-04-25T12:50:43;1226.22;;;465.60;;
75156;SDS011;63736;50.076;8.198;2023-04-25T12:53:09;1221.63;;;484.00;;
75156;SDS011;63736;50.076;8.198;2023-04-25T12:55:34;1195.67;;;477.50;;
75156;SDS011;63736;50.076;8.198;2023-04-25T12:58:00;1184.38;;;471.10;;
75156;SDS011;63736;50.076;8.198;2023-04-25T13:00:25;1175.03;;;458.67;;
75156;SDS011;63736;50.076;8.198;2023-04-25T13:02:51;1176.22;;;457.70;;
75156;SDS011;63736;50.076;8.198;2023-04-25T13:05:16;1162.47;;;439.67;;
75156;SDS011;63736;50.076;8.198;2023-04-25T13:07:42;1159.83;;;434.87;;
75156;SDS011;63736;50.076;8.198;2023-04-25T13:10:07;1143.13;;;421.40;;
75156;SDS011;63736;50.076;8.198;2023-04-25T13:12:33;1143.15;;;419.77;;
75156;SDS011;63736;50.076;8.198;2023-04-25T13:14:58;1137.53;;;420.73;;
75156;SDS011;63736;50.076;8.198;2023-04-25T13:17:23;1133.60;;;418.50;;
75156;SDS011;63736;50.076;8.198;2023-04-25T13:19:49;1118.63;;;410.67;;
75156;SDS011;63736;50.076;8.198;2023-04-25T13:22:14;1124.60;;;412.70;;
75156;SDS011;63736;50.076;8.198;2023-04-25T13:24:41;1135.53;;;417.63;;
75156;SDS011;63736;50.076;8.198;2023-04-25T13:27:07;1144.75;;;434.60;;
75156;SDS011;63736;50.076;8.198;2023-04-25T13:29:32;1143.07;;;432.87;;
75156;SDS011;63736;50.076;8.198;2023-04-25T13:32:00;1146.85;;;437.88;;
75156;SDS011;63736;50.076;8.198;2023-04-25T13:34:26;1144.80;;;440.03;;
75156;SDS011;63736;50.076;8.198;2023-04-25T13:36:51;1143.67;;;439.13;;
75156;SDS011;63736;50.076;8.198;2023-04-25T13:39:16;1135.77;;;434.80;;
75156;SDS011;63736;50.076;8.198;2023-04-25T13:41:41;1132.97;;;426.70;;
75156;SDS011;63736;50.076;8.198;2023-04-25T13:44:07;1128.17;;;421.07;;
75156;SDS011;63736;50.076;8.198;2023-04-25T13:46:32;1132.73;;;430.20;;
75156;SDS011;63736;50.076;8.198;2023-04-25T13:48:57;1120.63;;;417.37;;
75156;SDS011;63736;50.076;8.198;2023-04-25T13:51:22;1117.47;;;409.47;;
75156;SDS011;63736;50.076;8.198;2023-04-25T13:53:48;1124.30;;;430.37;;
75156;SDS011;63736;50.076;8.198;2023-04-25T13:56:13;1138.03;;;440.43;;
75156;SDS011;63736;50.076;8.198;2023-04-25T13:58:38;1133.97;;;437.00;;
75156;SDS011;63736;50.076;8.198;2023-04-25T14:01:04;1137.82;;;442.98;;
75156;SDS011;63736;50.076;8.198;2023-04-25T14:03:30;1125.63;;;441.40;;
75156;SDS011;63736;50.076;8.198;2023-04-25T14:05:55;1124.38;;;439.92;;